CheckWX is a tool to help pilots better visualize weather data.  It is not intended as a substitute for an official pre-flight weather briefing.

19:59:48 UTC

KDCA METAR
Ronald Reagan Washington National Airport
Washington, Virginia, USA
Current

1 hour ago

KDCA 261852Z 13007KT 9SM -RA BKN050TCU BKN080 BKN250 30/22 A2996 RMK AO2 RAB25 SLP146 TCU ALQDS P0001 T03000217
Observed
May-26 @ 18:52 UTC
Wind
  • 130° at 7 KTS
Visibility
9 SM
Flight Rules
VFR
Conditions
Light Rain
Cloud Levels
  • Broken at 5,000' AGL
  • Broken at 8,000' AGL
  • Broken at 25,000' AGL
Temperature
30°C / 86°F
Dewpoint
22°C / 72°F
Heat Index
33°C / 92°F
Humidity
62%
Altimeter
29.96" Hg
Pressure
1014.52 hPa
Current Rain
0.01"
Previous

2 hours ago

KDCA 261752Z 28011G14KT 10SM BKN050TCU BKN130 BKN250 32/20 A2997 RMK AO2 SLP150 TCU ALQDS T03170200 10317 20228 58016
Observed
May-26 @ 17:52 UTC
Wind
  • 280° at 11 KTS
  • Gusting to 14 KTS
Visibility
10 SM
Flight Rules
VFR
Cloud Levels
  • Broken at 5,000' AGL
  • Broken at 13,000' AGL
  • Broken at 25,000' AGL
Temperature
32°C / 90°F
Dewpoint
20°C / 68°F
Heat Index
34°C / 94°F
Humidity
49%
Altimeter
29.97" Hg
Pressure
1014.92 hPa
Previous

3 hours ago

KDCA 261652Z 25007KT 10SM BKN055 BKN250 30/19 A3000 RMK AO2 SLP158 T03000194 $
Observed
May-26 @ 16:52 UTC
Wind
  • 250° at 7 KTS
Visibility
10 SM
Flight Rules
VFR
Cloud Levels
  • Broken at 5,500' AGL
  • Broken at 25,000' AGL
Temperature
30°C / 86°F
Dewpoint
19°C / 66°F
Heat Index
31°C / 88°F
Humidity
52%
Altimeter
30" Hg
Pressure
1015.92 hPa